Time;durP1;ratioP1;P1;durP2;ratioP2;P2;SDS_P1;SDS_P2;PMS_P1;PMS_P2;Temp;Humidity;BMP_temperature;BMP_pressure;BME280_temperature;BME280_humidity;BME280_pressure;Samples;Min_cycle;Max_cycle;Signal;HPM_P1;HPM_P2
2022/01/08 00:00:12;;;;;;;7.10;2.30;;;;;;;-143.35;100.00;58682.94;4995304;28;20109;-47
2022/01/08 00:02:38;;;;;;;8.95;3.33;;;;;;;-143.35;100.00;58682.94;4995401;28;20492;-49
2022/01/08 00:05:04;;;;;;;4.97;2.58;;;;;;;-143.35;100.00;58682.94;4995433;28;20026;-48
2022/01/08 00:07:29;;;;;;;7.55;2.38;;;;;;;-143.35;100.00;58682.94;4995390;28;20047;-48
2022/01/08 00:09:54;;;;;;;2.95;2.58;;;;;;;-143.35;100.00;58682.94;4995275;28;20026;-49
2022/01/08 00:12:20;;;;;;;13.68;3.28;;;;;;;-143.35;100.00;58682.94;4995217;28;20043;-48
2022/01/08 00:14:46;;;;;;;9.02;2.90;;;;;;;-143.35;100.00;58682.94;4995147;28;20057;-47
2022/01/08 00:17:11;;;;;;;6.47;2.58;;;;;;;-143.35;100.00;58682.94;4995337;28;20022;-47
2022/01/08 00:19:39;;;;;;;4.95;2.58;;;;;;;-143.35;100.00;58682.94;4995112;28;20088;-47
2022/01/08 00:22:05;;;;;;;12.00;3.35;;;;;;;-143.35;100.00;58682.94;4995089;28;20018;-48
2022/01/08 00:24:30;;;;;;;12.85;3.03;;;;;;;-143.35;100.00;58682.94;4994963;28;20384;-47
2022/01/08 00:26:55;;;;;;;17.35;2.70;;;;;;;-143.35;100.00;58682.94;4995086;28;20485;-48
2022/01/08 00:29:21;;;;;;;12.05;2.50;;;;;;;-143.35;100.00;58682.94;4995002;28;20042;-48
2022/01/08 00:31:46;;;;;;;10.13;3.50;;;;;;;-143.35;100.00;58682.94;4994786;28;20050;-50
2022/01/08 00:34:12;;;;;;;8.07;2.97;;;;;;;-143.35;100.00;58682.94;4994938;28;20033;-49
2022/01/08 00:36:37;;;;;;;4.88;2.95;;;;;;;-143.35;100.00;58682.94;4994816;28;20022;-49
2022/01/08 00:39:03;;;;;;;11.48;3.08;;;;;;;-143.35;100.00;58682.94;5010117;28;20499;-48
2022/01/08 00:41:29;;;;;;;6.03;2.88;;;;;;;-143.35;100.00;58682.94;4994884;28;20548;-48
2022/01/08 00:43:55;;;;;;;11.45;2.72;;;;;;;-143.35;100.00;58682.94;4994694;28;20057;-49
2022/01/08 00:46:20;;;;;;;9.63;3.08;;;;;;;-143.35;100.00;58682.94;4994693;28;20124;-49
2022/01/08 00:48:45;;;;;;;13.00;2.92;;;;;;;-143.35;100.00;58682.94;4994522;28;20054;-49
2022/01/08 00:51:11;;;;;;;8.15;3.20;;;;;;;-143.35;100.00;58682.94;4994756;28;20038;-48
2022/01/08 00:53:37;;;;;;;8.45;3.33;;;;;;;-143.35;100.00;58682.94;4994535;28;20038;-48
2022/01/08 00:56:03;;;;;;;6.95;2.78;;;;;;;-143.35;100.00;58682.94;4994739;28;20033;-49
2022/01/08 00:58:29;;;;;;;6.95;2.85;;;;;;;-143.35;100.00;58682.94;4994603;28;20444;-48
2022/01/08 01:00:54;;;;;;;7.82;2.63;;;;;;;-143.35;100.00;58682.94;4994534;28;20029;-48
2022/01/08 01:03:20;;;;;;;7.53;3.17;;;;;;;-143.35;100.00;58682.94;4994611;28;20022;-48
2022/01/08 01:05:45;;;;;;;14.65;3.67;;;;;;;-143.35;100.00;58682.94;4994525;28;20038;-48
2022/01/08 01:08:11;;;;;;;5.43;2.83;;;;;;;-143.35;100.00;58682.94;4994528;28;20026;-48
2022/01/08 01:10:36;;;;;;;7.00;2.83;;;;;;;-143.35;100.00;58682.94;4994613;28;20492;-50
2022/01/08 01:13:02;;;;;;;13.15;3.20;;;;;;;-143.35;100.00;58682.94;4994500;28;20482;-50
2022/01/08 01:15:28;;;;;;;11.98;3.17;;;;;;;-143.35;100.00;58682.94;4994547;28;20045;-48
2022/01/08 01:17:53;;;;;;;4.90;2.85;;;;;;;-143.35;100.00;58682.94;4994432;28;20035;-49
2022/01/08 01:20:22;;;;;;;13.38;2.63;;;;;;;-143.35;100.00;58682.94;4995492;28;20037;-48
2022/01/08 01:25:30;;;;;;;6.82;2.80;;;;;;;-143.35;100.00;58682.94;4998406;28;20038;-48
2022/01/08 01:28:03;;;;;;;;;;;;;;;;;;;;;
2022/01/08 01:30:38;;;;;;;11.57;3.03;;;;;;;-143.35;100.00;58682.94;4998901;28;20116;-47
2022/01/08 01:49:04;;;;;;;3.72;2.05;;;;;;;-143.35;100.00;58682.94;4998117;28;20122;-48
2022/01/08 01:51:30;;;;;;;6.72;1.60;;;;;;;-143.35;100.00;58682.94;4997803;28;20373;-46
2022/01/08 01:53:55;;;;;;;6.72;2.20;;;;;;;-143.35;100.00;58682.94;4997738;28;20097;-47
2022/01/08 01:56:21;;;;;;;13.07;1.70;;;;;;;-143.35;100.00;58682.94;4997737;28;20113;-46
2022/01/08 01:58:47;;;;;;;3.47;1.50;;;;;;;-143.35;100.00;58682.94;4997839;28;20026;-46
2022/01/08 02:01:13;;;;;;;6.15;1.70;;;;;;;-143.35;100.00;58682.94;4997701;28;20492;-47
2022/01/08 02:03:39;;;;;;;6.70;1.75;;;;;;;-143.35;100.00;58682.94;4996492;28;20026;-48
2022/01/08 02:06:05;;;;;;;3.65;1.70;;;;;;;-143.35;100.00;58682.94;4997596;28;20030;-49
2022/01/08 02:08:31;;;;;;;12.25;1.73;;;;;;;-143.35;100.00;58682.94;4997514;28;20037;-49
2022/01/08 02:10:56;;;;;;;7.68;1.63;;;;;;;-143.35;100.00;58682.94;4997505;28;20034;-49
2022/01/08 02:13:23;;;;;;;8.35;1.85;;;;;;;-143.35;100.00;58682.94;4997423;28;20030;-49
2022/01/08 02:15:54;;;;;;;7.60;1.58;;;;;;;-143.35;100.00;58682.94;4997405;28;20076;-47
2022/01/08 02:18:21;;;;;;;14.88;1.88;;;;;;;-143.35;100.00;58682.94;4997500;28;20027;-46
2022/01/08 02:20:47;;;;;;;8.32;1.73;;;;;;;-143.35;100.00;58682.94;4997477;28;20034;-49
2022/01/08 02:23:12;;;;;;;1.88;1.15;;;;;;;-143.35;100.00;58682.94;4997347;28;20018;-49
2022/01/08 02:25:38;;;;;;;6.82;1.10;;;;;;;-143.35;100.00;58682.94;4997231;28;20358;-48
2022/01/08 02:28:04;;;;;;;6.82;1.25;;;;;;;-143.35;100.00;58682.94;4997249;28;20026;-49
2022/01/08 02:30:30;;;;;;;7.63;1.63;;;;;;;-143.35;100.00;58682.94;4997120;28;20523;-47
2022/01/08 02:32:55;;;;;;;7.30;1.52;;;;;;;-143.35;100.00;58682.94;4995713;28;20022;-47
2022/01/08 02:35:22;;;;;;;13.73;2.05;;;;;;;-143.35;100.00;58682.94;4997120;28;20088;-48
2022/01/08 02:37:50;;;;;;;7.93;1.80;;;;;;;-143.35;100.00;58682.94;4997203;28;20022;-50
2022/01/08 02:40:18;;;;;;;8.05;1.48;;;;;;;-143.35;100.00;58682.94;4997027;28;20026;-46
2022/01/08 02:42:51;;;;;;;8.45;2.05;;;;;;;-143.35;100.00;58682.94;4996901;28;20029;-50
2022/01/08 02:45:17;;;;;;;4.20;1.38;;;;;;;-143.35;100.00;58682.94;4996998;28;20030;-48
2022/01/08 02:47:44;;;;;;;9.43;1.00;;;;;;;-143.35;100.00;58682.94;4996889;28;20432;-48
2022/01/08 02:50:09;;;;;;;13.85;2.00;;;;;;;-143.35;100.00;58682.94;4996635;28;20058;-49
2022/01/08 02:52:40;;;;;;;6.78;1.52;;;;;;;-143.35;100.00;58682.94;4996726;28;20042;-46
2022/01/08 02:55:05;;;;;;;6.15;1.63;;;;;;;-143.35;100.00;58682.94;4996909;28;20019;-49
2022/01/08 02:57:32;;;;;;;4.15;1.77;;;;;;;-143.35;100.00;58682.94;4996695;28;20034;-47
2022/01/08 02:59:57;;;;;;;2.88;1.60;;;;;;;-143.35;100.00;58682.94;4996791;28;20030;-48
2022/01/08 03:02:22;;;;;;;10.43;1.77;;;;;;;-143.35;100.00;58682.94;4996569;28;20026;-48
2022/01/08 03:04:49;;;;;;;6.07;1.65;;;;;;;-143.35;100.00;58682.94;4996604;28;20346;-48
2022/01/08 03:07:14;;;;;;;5.88;2.10;;;;;;;-143.35;100.00;58682.94;4996650;28;20037;-50
2022/01/08 03:09:41;;;;;;;5.38;1.67;;;;;;;-143.35;100.00;58682.94;4996448;28;20034;-47
2022/01/08 03:12:08;;;;;;;6.93;1.88;;;;;;;-143.35;100.00;58682.94;4996432;28;20030;-47
2022/01/08 03:14:33;;;;;;;2.63;1.15;;;;;;;-143.35;100.00;58682.94;4996269;28;20543;-48
2022/01/08 03:16:59;;;;;;;6.22;1.20;;;;;;;-143.35;100.00;58682.94;4996925;28;20026;-46
2022/01/08 03:19:24;;;;;;;3.28;1.38;;;;;;;-143.35;100.00;58682.94;4996466;28;20022;-47
2022/01/08 03:21:53;;;;;;;10.20;1.73;;;;;;;-143.35;100.00;58682.94;4996342;28;20548;-46
2022/01/08 03:24:26;;;;;;;5.05;1.77;;;;;;;-143.35;100.00;58682.94;4996220;28;20038;-46
2022/01/08 03:26:51;;;;;;;13.32;2.15;;;;;;;-143.35;100.00;58682.94;4996329;28;20033;-48
2022/01/08 03:29:16;;;;;;;9.02;2.08;;;;;;;-143.35;100.00;58682.94;4996151;28;20018;-47
2022/01/08 03:31:42;;;;;;;8.05;1.60;;;;;;;-143.35;100.00;58682.94;4995988;28;20022;-47
2022/01/08 03:34:07;;;;;;;8.10;1.60;;;;;;;-143.35;100.00;58682.94;4995979;28;20059;-47
2022/01/08 03:36:33;;;;;;;3.88;1.52;;;;;;;-143.35;100.00;58682.94;4995964;28;20109;-47
2022/01/08 03:38:59;;;;;;;5.35;1.35;;;;;;;-143.35;100.00;58682.94;4995881;28;20030;-47
2022/01/08 03:41:24;;;;;;;7.97;1.90;;;;;;;-143.35;100.00;58682.94;4995868;28;20027;-47
2022/01/08 03:43:50;;;;;;;12.68;2.83;;;;;;;-143.35;100.00;58682.94;4995370;28;20034;-51
2022/01/08 03:46:19;;;;;;;10.75;1.98;;;;;;;-143.35;100.00;58682.94;4995837;28;20081;-48
2022/01/08 03:48:46;;;;;;;10.35;2.10;;;;;;;-143.35;100.00;58682.94;5014480;23;20049;-48
2022/01/08 03:51:13;;;;;;;9.65;2.22;;;;;;;-143.35;100.00;58682.94;5015144;28;20036;-49
2022/01/08 03:53:39;;;;;;;10.63;2.22;;;;;;;-143.35;100.00;58682.94;5015107;28;20025;-50
2022/01/08 03:56:05;;;;;;;5.82;2.05;;;;;;;-143.35;100.00;58682.94;5015277;28;20076;-47
2022/01/08 03:58:31;;;;;;;4.28;1.50;;;;;;;-143.35;100.00;58682.94;5015108;28;20022;-47
2022/01/08 04:00:56;;;;;;;8.43;1.85;;;;;;;-143.35;100.00;58682.94;5015112;28;20032;-47
2022/01/08 04:03:21;;;;;;;6.13;2.10;;;;;;;-143.35;100.00;58682.94;5015231;28;20073;-47
2022/01/08 04:05:49;;;;;;;8.15;2.28;;;;;;;-143.35;100.00;58682.94;5015007;28;20473;-49
2022/01/08 04:08:15;;;;;;;8.48;2.22;;;;;;;-143.35;100.00;58682.94;5014922;28;20046;-47
2022/01/08 04:10:41;;;;;;;7.93;1.65;;;;;;;-143.35;100.00;58682.94;5014961;28;20054;-48
2022/01/08 04:13:12;;;;;;;13.13;3.42;;;;;;;-143.35;100.00;58682.94;5014801;28;20073;-50
2022/01/08 04:15:41;;;;;;;12.75;2.72;;;;;;;-143.35;100.00;58682.94;5014954;28;20542;-46
2022/01/08 04:18:07;;;;;;;11.30;2.60;;;;;;;-143.35;100.00;58682.94;5014815;28;20389;-50
2022/01/08 04:20:37;;;;;;;8.25;3.05;;;;;;;-143.35;100.00;58682.94;5014803;28;20083;-47
2022/01/08 04:23:03;;;;;;;8.75;3.88;;;;;;;-143.35;100.00;58682.94;5014718;28;20018;-47
2022/01/08 04:25:28;;;;;;;10.77;2.85;;;;;;;-143.35;100.00;58682.94;5014558;28;20033;-48
2022/01/08 04:27:53;;;;;;;6.60;3.10;;;;;;;-143.35;100.00;58682.94;5014677;28;20030;-47
2022/01/08 04:30:19;;;;;;;8.23;3.45;;;;;;;-143.35;100.00;58682.94;5014648;28;20029;-49
2022/01/08 04:32:45;;;;;;;10.90;3.40;;;;;;;-143.35;100.00;58682.94;5014555;28;20499;-47
2022/01/08 04:35:10;;;;;;;8.38;3.83;;;;;;;-143.35;100.00;58682.94;5014520;28;20036;-47
2022/01/08 04:37:36;;;;;;;20.08;4.88;;;;;;;-143.35;100.00;58682.94;5014825;28;20025;-46
2022/01/08 04:40:02;;;;;;;10.95;3.90;;;;;;;-143.35;100.00;58682.94;5014593;28;20080;-48
2022/01/08 04:42:27;;;;;;;8.75;3.50;;;;;;;-143.35;100.00;58682.94;5014612;28;20105;-48
2022/01/08 04:44:54;;;;;;;14.25;3.95;;;;;;;-143.35;100.00;58682.94;5014627;28;20107;-49
2022/01/08 04:47:19;;;;;;;10.85;3.50;;;;;;;-143.35;100.00;58682.94;5014488;28;20044;-49
2022/01/08 04:49:45;;;;;;;15.02;3.30;;;;;;;-143.35;100.00;58682.94;5014516;28;20029;-48
2022/01/08 04:52:10;;;;;;;8.38;3.25;;;;;;;-143.35;100.00;58682.94;5014405;28;20049;-48
2022/01/08 04:54:36;;;;;;;13.52;3.50;;;;;;;-143.35;100.00;58682.94;5013805;28;20030;-50
2022/01/08 04:57:01;;;;;;;12.75;4.40;;;;;;;-143.35;100.00;58682.94;5014187;28;20033;-49
2022/01/08 04:59:26;;;;;;;12.20;4.07;;;;;;;-143.35;100.00;58682.94;5014623;28;20073;-49
2022/01/08 05:01:52;;;;;;;14.95;3.85;;;;;;;-143.35;100.00;58682.94;5013311;28;20057;-49
2022/01/08 05:04:17;;;;;;;4.85;3.20;;;;;;;-143.35;100.00;58682.94;5013525;28;20405;-48
2022/01/08 05:06:42;;;;;;;10.32;2.63;;;;;;;-143.35;100.00;58682.94;5014046;28;20045;-49
2022/01/08 05:09:08;;;;;;;10.18;4.18;;;;;;;-143.35;100.00;58682.94;5014329;28;20026;-48
2022/01/08 05:11:33;;;;;;;9.95;4.32;;;;;;;-143.35;100.00;58682.94;5014346;28;20022;-49
2022/01/08 05:13:59;;;;;;;13.80;3.60;;;;;;;-143.35;100.00;58682.94;5014332;28;20037;-48
2022/01/08 05:16:27;;;;;;;10.00;4.43;;;;;;;-143.35;100.00;58682.94;5014287;28;20028;-48
2022/01/08 05:18:54;;;;;;;11.07;4.00;;;;;;;-143.35;100.00;58682.94;5014262;28;20026;-48
2022/01/08 05:21:29;;;;;;;5.75;3.30;;;;;;;-143.35;100.00;58682.94;5014308;28;20036;-49
2022/01/08 05:23:57;;;;;;;10.90;4.03;;;;;;;-143.35;100.00;58682.94;5014220;28;20026;-49
2022/01/08 05:26:25;;;;;;;11.02;4.22;;;;;;;-143.35;100.00;58682.94;5014212;28;20034;-48
2022/01/08 05:28:54;;;;;;;11.32;4.05;;;;;;;-143.35;100.00;58682.94;5014343;28;20030;-48
2022/01/08 05:31:22;;;;;;;10.23;3.95;;;;;;;-143.35;100.00;58682.94;5013053;28;20444;-48
2022/01/08 05:33:49;;;;;;;11.07;4.15;;;;;;;-143.35;100.00;58682.94;5014082;28;20033;-48
2022/01/08 05:36:14;;;;;;;18.30;4.57;;;;;;;-143.35;100.00;58682.94;5014203;28;20032;-49
2022/01/08 05:38:40;;;;;;;11.95;5.18;;;;;;;-143.35;100.00;58682.94;5014294;28;20025;-49
2022/01/08 05:41:06;;;;;;;11.82;4.05;;;;;;;-143.35;100.00;58682.94;5014323;28;20435;-50
2022/01/08 05:43:31;;;;;;;8.73;4.53;;;;;;;-143.35;100.00;58682.94;5014277;28;20030;-48
2022/01/08 05:45:57;;;;;;;12.82;4.63;;;;;;;-143.35;100.00;58682.94;5014876;28;20102;-48
2022/01/08 05:48:26;;;;;;;15.82;4.32;;;;;;;-143.35;100.00;58682.94;5013575;28;20052;-47
2022/01/08 05:50:52;;;;;;;10.77;4.68;;;;;;;-143.35;100.00;58682.94;5014060;28;20034;-47
2022/01/08 05:53:18;;;;;;;10.95;5.00;;;;;;;-143.35;100.00;58682.94;5013966;28;20033;-47
2022/01/08 05:55:44;;;;;;;8.15;4.13;;;;;;;-143.35;100.00;58682.94;5013929;28;20551;-48
2022/01/08 05:58:10;;;;;;;11.27;5.95;;;;;;;-143.35;100.00;58682.94;5013836;28;20115;-48
2022/01/08 06:00:35;;;;;;;10.02;5.13;;;;;;;-143.35;100.00;58682.94;5013641;28;20029;-48
2022/01/08 06:03:01;;;;;;;11.02;5.63;;;;;;;-143.35;100.00;58682.94;5013869;28;20025;-48
2022/01/08 06:05:26;;;;;;;11.50;5.80;;;;;;;-143.35;100.00;58682.94;5014023;28;20480;-49
2022/01/08 06:07:52;;;;;;;11.48;4.57;;;;;;;-143.35;100.00;58682.94;5016937;28;20033;-49
2022/01/08 06:10:18;;;;;;;16.40;5.60;;;;;;;-143.35;100.00;58682.94;5017348;28;20487;-48
2022/01/08 06:12:44;;;;;;;17.52;5.00;;;;;;;-143.35;100.00;58682.94;5017357;28;20084;-48
2022/01/08 06:15:10;;;;;;;14.30;5.15;;;;;;;-143.35;100.00;58682.94;5017284;28;20029;-47
2022/01/08 06:17:35;;;;;;;17.05;4.15;;;;;;;-143.35;100.00;58682.94;5017351;28;20030;-48
2022/01/08 06:20:01;;;;;;;16.20;4.85;;;;;;;-143.35;100.00;58682.94;5017139;28;20497;-51
2022/01/08 06:22:26;;;;;;;11.57;4.43;;;;;;;-143.35;100.00;58682.94;5017142;28;20432;-49
2022/01/08 06:24:51;;;;;;;10.27;5.25;;;;;;;-143.35;100.00;58682.94;5017108;28;20030;-50
2022/01/08 06:27:17;;;;;;;9.35;4.20;;;;;;;-143.35;100.00;58682.94;5015977;28;20033;-49
2022/01/08 06:29:42;;;;;;;9.13;5.10;;;;;;;-143.35;100.00;58682.94;5015816;28;20029;-48
2022/01/08 06:32:08;;;;;;;8.15;4.53;;;;;;;-143.35;100.00;58682.94;5015584;28;20133;-48
2022/01/08 06:34:33;;;;;;;9.30;4.78;;;;;;;-143.35;100.00;58682.94;5015800;28;20029;-49
2022/01/08 06:36:59;;;;;;;13.05;5.10;;;;;;;-143.35;100.00;58682.94;5016955;28;20467;-47
2022/01/08 06:39:24;;;;;;;15.00;5.32;;;;;;;-143.35;100.00;58682.94;5016757;28;20460;-47
2022/01/08 06:41:49;;;;;;;17.08;6.75;;;;;;;-143.35;100.00;58682.94;5016596;28;20081;-49
2022/01/08 06:44:15;;;;;;;20.00;5.22;;;;;;;-143.35;100.00;58682.94;5016771;28;20034;-48
2022/01/08 06:46:43;;;;;;;16.45;6.50;;;;;;;-143.35;100.00;58682.94;5016787;28;20034;-51
2022/01/08 06:49:09;;;;;;;18.08;5.90;;;;;;;-143.35;100.00;58682.94;5016509;28;20092;-47
2022/01/08 06:51:34;;;;;;;12.77;5.90;;;;;;;-143.35;100.00;58682.94;5016703;28;20476;-48
2022/01/08 06:54:00;;;;;;;16.73;7.05;;;;;;;-143.35;100.00;58682.94;5016438;28;20022;-48
2022/01/08 06:56:25;;;;;;;17.63;7.00;;;;;;;-143.35;100.00;58682.94;5016450;28;20096;-48
2022/01/08 06:58:51;;;;;;;26.45;9.10;;;;;;;-143.35;100.00;58682.94;5016387;28;20083;-48
2022/01/08 07:01:16;;;;;;;18.02;6.50;;;;;;;-143.35;100.00;58682.94;5016497;28;20022;-51
2022/01/08 07:03:41;;;;;;;17.33;6.63;;;;;;;-143.35;100.00;58682.94;5016366;28;20073;-49
2022/01/08 07:06:07;;;;;;;14.32;5.00;;;;;;;-143.35;100.00;58682.94;5016430;28;20018;-50
2022/01/08 07:08:32;;;;;;;26.13;4.50;;;;;;;-143.35;100.00;58682.94;5016180;28;20105;-48
2022/01/08 07:10:58;;;;;;;8.52;3.22;;;;;;;-143.35;100.00;58682.94;5016085;28;20045;-48
2022/01/08 07:13:23;;;;;;;3.72;1.88;;;;;;;-143.35;100.00;58682.94;5015918;28;20034;-49
2022/01/08 07:15:49;;;;;;;8.90;2.42;;;;;;;-143.35;100.00;58682.94;5016022;28;20112;-49
2022/01/08 07:18:14;;;;;;;1.15;0.95;;;;;;;-143.35;100.00;58682.94;5015224;28;20033;-48
2022/01/08 07:20:39;;;;;;;5.60;1.40;;;;;;;-143.35;100.00;58682.94;5016233;28;20504;-48
2022/01/08 07:23:05;;;;;;;1.23;0.93;;;;;;;-143.35;100.00;58682.94;5015908;28;20022;-49
2022/01/08 07:25:30;;;;;;;2.60;2.05;;;;;;;-143.35;100.00;58682.94;5015813;28;20117;-48
2022/01/08 07:27:56;;;;;;;2.92;1.50;;;;;;;-143.35;100.00;58682.94;5016056;28;20018;-51
2022/01/08 07:30:21;;;;;;;2.53;1.92;;;;;;;-143.35;100.00;58682.94;5016220;28;20033;-47
2022/01/08 07:32:50;;;;;;;1.13;1.02;;;;;;;-143.35;100.00;58682.94;5015864;28;20025;-48
2022/01/08 07:35:19;;;;;;;1.50;1.42;;;;;;;-143.35;100.00;58682.94;5015704;28;20030;-48
2022/01/08 07:37:45;;;;;;;1.52;1.42;;;;;;;-143.35;100.00;58682.94;5015670;28;20034;-48
2022/01/08 07:40:12;;;;;;;1.88;1.77;;;;;;;-143.35;100.00;58682.94;5015626;28;20026;-48
2022/01/08 07:42:38;;;;;;;4.30;3.03;;;;;;;-143.35;100.00;58682.94;5015694;28;20030;-48
2022/01/08 07:45:04;;;;;;;1.70;1.63;;;;;;;-143.35;100.00;58682.94;5015598;28;20018;-48
2022/01/08 07:47:30;;;;;;;2.42;2.17;;;;;;;-143.35;100.00;58682.94;5015566;28;20029;-47
2022/01/08 07:49:55;;;;;;;10.68;3.20;;;;;;;-143.35;100.00;58682.94;5015114;28;20052;-48
2022/01/08 07:52:21;;;;;;;3.00;1.73;;;;;;;-143.35;100.00;58682.94;5015528;28;20106;-50
2022/01/08 07:54:47;;;;;;;1.58;1.48;;;;;;;-143.35;100.00;58682.94;5015287;28;20358;-49
2022/01/08 07:57:12;;;;;;;10.93;2.88;;;;;;;-143.35;100.00;58682.94;5015392;28;20029;-49
2022/01/08 07:59:38;;;;;;;2.83;2.03;;;;;;;-143.35;100.00;58682.94;5015365;28;20043;-47
2022/01/08 08:02:03;;;;;;;4.22;2.72;;;;;;;-143.35;100.00;58682.94;5015455;28;20056;-48
2022/01/08 08:04:28;;;;;;;5.28;2.30;;;;;;;-143.35;100.00;58682.94;5015119;28;20088;-49
2022/01/08 08:06:54;;;;;;;2.10;1.67;;;;;;;-143.35;100.00;58682.94;5015158;28;20366;-51
2022/01/08 08:09:19;;;;;;;2.80;2.17;;;;;;;-143.35;100.00;58682.94;5015139;28;20030;-48
2022/01/08 08:11:45;;;;;;;1.10;1.10;;;;;;;-143.35;100.00;58682.94;5015250;28;20031;-51
2022/01/08 08:14:11;;;;;;;1.90;1.20;;;;;;;-143.35;100.00;58682.94;5015145;28;20079;-49
2022/01/08 08:16:37;;;;;;;3.95;2.72;;;;;;;-143.35;100.00;58682.94;5015111;28;20561;-50
2022/01/08 08:19:02;;;;;;;3.78;2.35;;;;;;;-143.35;100.00;58682.94;5014905;28;20104;-48
2022/01/08 08:21:28;;;;;;;2.88;2.47;;;;;;;-143.35;100.00;58682.94;5013700;28;20064;-48
2022/01/08 08:23:53;;;;;;;3.17;2.92;;;;;;;-143.35;100.00;58682.94;5015009;28;20053;-50
2022/01/08 08:26:19;;;;;;;1.77;1.67;;;;;;;-143.35;100.00;58682.94;5015229;28;20045;-48
2022/01/08 08:28:44;;;;;;;1.05;1.05;;;;;;;-143.35;100.00;58682.94;5014821;28;20029;-51
2022/01/08 08:31:11;;;;;;;1.88;1.58;;;;;;;-143.35;100.00;58682.94;5014754;28;20385;-49
2022/01/08 08:33:40;;;;;;;1.67;1.58;;;;;;;-143.35;100.00;58682.94;5014722;28;20026;-49
2022/01/08 08:36:06;;;;;;;2.28;1.40;;;;;;;-143.35;100.00;58682.94;5014686;28;20037;-48
2022/01/08 08:38:32;;;;;;;2.40;1.55;;;;;;;-143.35;100.00;58682.94;5014850;28;20034;-49
2022/01/08 08:40:57;;;;;;;2.33;1.77;;;;;;;-143.35;100.00;58682.94;5014576;28;20044;-49
2022/01/08 08:43:23;;;;;;;3.53;2.45;;;;;;;-143.35;100.00;58682.94;5015593;28;20063;-48
2022/01/08 08:45:48;;;;;;;1.65;1.50;;;;;;;-143.35;100.00;58682.94;5014507;28;20026;-49
2022/01/08 08:48:15;;;;;;;1.88;1.70;;;;;;;-143.35;100.00;58682.94;5014409;28;20021;-51
2022/01/08 08:50:41;;;;;;;6.60;4.80;;;;;;;-143.35;100.00;58682.94;5014563;28;20104;-48
2022/01/08 08:53:06;;;;;;;7.38;4.72;;;;;;;-143.35;100.00;58682.94;5014538;28;20050;-49
2022/01/08 08:55:32;;;;;;;5.53;3.45;;;;;;;-143.35;100.00;58682.94;5014692;28;20030;-51
2022/01/08 08:57:57;;;;;;;2.80;2.47;;;;;;;-143.35;100.00;58682.94;5014524;28;20053;-48
2022/01/08 09:00:25;;;;;;;5.28;3.38;;;;;;;-143.35;100.00;58682.94;5013237;28;20053;-49
2022/01/08 09:02:50;;;;;;;8.80;4.00;;;;;;;-143.35;100.00;58682.94;5014400;28;20021;-49
2022/01/08 09:05:15;;;;;;;4.13;3.15;;;;;;;-143.35;100.00;58682.94;5014352;28;20025;-48
2022/01/08 09:07:41;;;;;;;7.93;3.63;;;;;;;-143.35;100.00;58682.94;5014201;28;20028;-50
2022/01/08 09:10:09;;;;;;;4.15;3.40;;;;;;;-143.35;100.00;58682.94;5014319;28;20032;-49
2022/01/08 09:12:35;;;;;;;2.72;2.00;;;;;;;-143.35;100.00;58682.94;5014188;28;20033;-50
2022/01/08 09:15:01;;;;;;;2.00;1.85;;;;;;;-143.35;100.00;58682.94;5014420;28;20021;-46
2022/01/08 09:17:26;;;;;;;3.50;2.85;;;;;;;-143.35;100.00;58682.94;5014232;28;20026;-49
2022/01/08 09:19:54;;;;;;;2.88;1.90;;;;;;;-143.35;100.00;58682.94;5014214;28;20026;-50
2022/01/08 09:22:19;;;;;;;4.38;2.42;;;;;;;-143.35;100.00;58682.94;5014269;28;20030;-49
2022/01/08 09:24:47;;;;;;;2.63;1.75;;;;;;;-143.35;100.00;58682.94;5014162;28;20022;-49
2022/01/08 09:27:13;;;;;;;3.13;1.73;;;;;;;-143.35;100.00;58682.94;5013788;28;20095;-50
2022/01/08 09:29:38;;;;;;;3.40;2.22;;;;;;;-143.35;100.00;58682.94;5013920;28;20408;-48
2022/01/08 09:32:05;;;;;;;3.22;1.77;;;;;;;-143.35;100.00;58682.94;5014205;28;20446;-49
2022/01/08 09:34:31;;;;;;;1.90;1.70;;;;;;;-143.35;100.00;58682.94;5014086;28;20030;-48
2022/01/08 09:36:58;;;;;;;3.20;1.92;;;;;;;-143.35;100.00;58682.94;5014060;28;20022;-48
2022/01/08 09:39:24;;;;;;;1.50;1.33;;;;;;;-143.35;100.00;58682.94;5013889;28;20053;-49
2022/01/08 09:41:50;;;;;;;1.92;1.80;;;;;;;-143.35;100.00;58682.94;5015606;28;20022;-48
2022/01/08 09:44:15;;;;;;;3.70;1.77;;;;;;;-143.35;100.00;58682.94;5017715;28;20036;-48
2022/01/08 09:46:41;;;;;;;9.68;2.88;;;;;;;-143.35;100.00;58682.94;5017692;28;20046;-50
2022/01/08 09:49:06;;;;;;;1.45;1.38;;;;;;;-143.35;100.00;58682.94;5017455;28;20400;-49
2022/01/08 09:51:32;;;;;;;2.88;1.50;;;;;;;-143.35;100.00;58682.94;5017793;28;20465;-48
2022/01/08 09:53:57;;;;;;;2.58;1.92;;;;;;;-143.35;100.00;58682.94;5018256;28;20022;-48
2022/01/08 09:56:25;;;;;;;3.55;3.05;;;;;;;-143.35;100.00;58682.94;5017945;28;20100;-48
2022/01/08 09:58:51;;;;;;;11.80;2.25;;;;;;;-143.35;100.00;58682.94;5017761;28;20160;-48
2022/01/08 10:01:28;;;;;;;1.38;1.25;;;;;;;-143.35;100.00;58682.94;5017542;28;20030;-47
2022/01/08 10:03:54;;;;;;;4.95;2.03;;;;;;;-143.35;100.00;58682.94;5017525;28;20022;-48
2022/01/08 10:06:22;;;;;;;4.00;1.80;;;;;;;-143.35;100.00;58682.94;5017341;28;20030;-48
2022/01/08 10:08:48;;;;;;;3.63;2.40;;;;;;;-143.35;100.00;58682.94;5017451;28;20108;-48
2022/01/08 10:11:14;;;;;;;6.43;2.80;;;;;;;-143.35;100.00;58682.94;5017314;28;20370;-47
2022/01/08 10:13:41;;;;;;;2.90;2.15;;;;;;;-143.35;100.00;58682.94;5016015;28;20025;-48
2022/01/08 10:19:02;;;;;;;2.78;2.00;;;;;;;-143.35;100.00;58682.94;5017459;28;20040;-49
2022/01/08 10:21:32;;;;;;;3.92;1.70;;;;;;;-143.35;100.00;58682.94;5017148;28;20037;-49
2022/01/08 10:24:08;;;;;;;2.30;1.65;;;;;;;-143.35;100.00;58682.94;5017175;28;20022;-47
2022/01/08 10:26:36;;;;;;;1.30;1.20;;;;;;;-143.35;100.00;58682.94;5017039;28;20037;-48
2022/01/08 10:29:19;;;;;;;5.30;2.83;;;;;;;-143.35;100.00;58682.94;5017043;28;20385;-50
2022/01/08 10:31:47;;;;;;;2.25;2.03;;;;;;;-143.35;100.00;58682.94;5016939;28;20484;-49
2022/01/08 10:34:18;;;;;;;4.90;1.48;;;;;;;-143.35;100.00;58682.94;5016827;28;20042;-47
2022/01/08 10:37:02;;;;;;;3.55;1.75;;;;;;;-143.35;100.00;58682.94;5016838;28;20034;-47
2022/01/08 10:39:29;;;;;;;2.65;1.42;;;;;;;-143.35;100.00;58682.94;5016882;28;20026;-49
2022/01/08 10:41:57;;;;;;;4.07;2.05;;;;;;;-143.35;100.00;58682.94;5016883;28;20033;-48
2022/01/08 10:44:26;;;;;;;5.75;1.70;;;;;;;-143.35;100.00;58682.94;5016657;28;20068;-48
2022/01/08 10:47:07;;;;;;;2.30;1.02;;;;;;;-143.35;100.00;58682.94;5016757;28;20021;-48
2022/01/08 10:49:32;;;;;;;;;;;;;;;-143.35;100.00;58682.94;5016934;28;20493;-47
2022/01/08 10:52:00;;;;;;;0.43;0.43;;;;;;;-143.35;100.00;58682.94;5016497;28;19924;-47
2022/01/08 10:54:27;;;;;;;1.88;1.02;;;;;;;-143.35;100.00;58682.94;5015492;28;20029;-48
2022/01/08 10:57:00;;;;;;;0.22;0.22;;;;;;;-143.35;100.00;58682.94;5016438;28;20477;-50
2022/01/08 10:59:26;;;;;;;1.13;0.70;;;;;;;-143.35;100.00;58682.94;5016408;28;20501;-50
2022/01/08 11:01:56;;;;;;;2.28;1.00;;;;;;;-143.35;100.00;58682.94;5016615;28;20034;-48
2022/01/08 11:04:41;;;;;;;0.73;0.73;;;;;;;-143.35;100.00;58682.94;5016251;28;20503;-49
2022/01/08 11:07:09;;;;;;;6.55;0.80;;;;;;;-143.35;100.00;58682.94;5016137;28;20544;-50
2022/01/08 11:09:37;;;;;;;1.55;1.45;;;;;;;-143.35;100.00;58682.94;5016216;28;20033;-49
2022/01/08 11:12:04;;;;;;;2.05;1.23;;;;;;;-143.35;100.00;58682.94;5014821;28;20037;-51
2022/01/08 11:15:00;;;;;;;7.60;1.58;;;;;;;-143.35;100.00;58682.94;5015905;28;20036;-48
2022/01/08 11:17:29;;;;;;;1.75;1.50;;;;;;;-143.35;100.00;58682.94;5016033;28;20080;-48
2022/01/08 11:20:00;;;;;;;1.35;0.85;;;;;;;-143.35;100.00;58682.94;5016038;28;20113;-50
2022/01/08 11:22:28;;;;;;;1.20;0.93;;;;;;;-143.35;100.00;58682.94;5015946;28;20045;-51
2022/01/08 11:24:59;;;;;;;1.58;1.40;;;;;;;-143.35;100.00;58682.94;5015976;28;20022;-49
2022/01/08 11:27:49;;;;;;;12.40;4.75;;;;;;;-143.35;100.00;58682.94;5015705;28;20033;-48